createdAt,value
2023-03-06T00:04:24.346Z,97.12
2023-03-06T00:09:28.971Z,97.71
2023-03-06T00:14:32.390Z,97.69
2023-03-06T00:19:35.789Z,98.61
2023-03-06T00:24:40.401Z,98.68
2023-03-06T00:29:43.556Z,98.84
2023-03-06T00:34:50.089Z,99.11
2023-03-06T00:39:55.087Z,98.90
2023-03-06T00:44:58.471Z,99.03
2023-03-06T00:50:01.867Z,99.47
2023-03-06T00:55:09.809Z,99.99
2023-03-06T01:00:14.731Z,99.77
2023-03-06T01:05:18.441Z,100.00
2023-03-06T01:10:23.417Z,100.00
2023-03-06T01:15:26.982Z,100.00
2023-03-06T01:20:30.995Z,100.00
2023-03-06T01:25:35.580Z,100.00
2023-03-06T01:30:38.774Z,100.00
2023-03-06T01:35:42.172Z,99.91
2023-03-06T01:40:47.258Z,99.49
2023-03-06T01:46:23.941Z,100.00
2023-03-06T01:51:31.719Z,99.86
2023-03-06T01:56:37.026Z,100.00
2023-03-06T02:01:41.862Z,99.94
2023-03-06T02:06:45.693Z,99.57
2023-03-06T02:11:50.540Z,100.00
2023-03-06T02:16:54.114Z,100.00
2023-03-06T02:21:57.710Z,100.00
2023-03-06T02:27:05.402Z,100.00
2023-03-06T02:32:08.899Z,100.00
2023-03-06T02:37:12.987Z,100.00
2023-03-06T02:42:21.081Z,100.00
2023-03-06T02:47:24.700Z,100.00
2023-03-06T02:52:27.985Z,100.00
2023-03-06T02:57:32.657Z,100.00
2023-03-06T03:02:36.011Z,100.00
2023-03-06T03:07:39.522Z,100.00
2023-03-06T03:12:44.603Z,100.00
2023-03-06T03:17:47.867Z,100.00
2023-03-06T03:22:53.319Z,100.00
2023-03-06T03:27:57.996Z,100.00
2023-03-06T03:33:01.274Z,100.00
2023-03-06T03:38:04.889Z,100.00
2023-03-06T03:43:09.693Z,100.00
2023-03-06T03:48:13.148Z,100.00
2023-03-06T03:53:16.492Z,100.00
2023-03-06T03:58:21.148Z,100.00
2023-03-06T04:03:24.514Z,100.00
2023-03-06T04:08:28.590Z,100.00
2023-03-06T04:13:33.297Z,100.00
2023-03-06T04:18:36.719Z,100.00
2023-03-06T04:23:40.069Z,100.00
2023-03-06T04:28:44.619Z,100.00
2023-03-06T04:33:47.828Z,100.00
2023-03-06T04:38:51.081Z,100.00
2023-03-06T04:43:56.170Z,100.00
2023-03-06T04:48:59.518Z,100.00
2023-03-06T04:54:02.787Z,100.00
2023-03-06T04:59:07.622Z,100.00
2023-03-06T05:04:10.864Z,100.00
2023-03-06T05:09:14.366Z,100.00
2023-03-06T05:14:19.002Z,100.00
2023-03-06T05:19:22.311Z,100.00
2023-03-06T05:24:25.720Z,100.00
2023-03-06T05:29:30.336Z,100.00
2023-03-06T05:34:33.627Z,100.00
2023-03-06T05:39:37.007Z,100.00
2023-03-06T05:44:42.279Z,100.00
2023-03-06T05:49:45.601Z,99.77
2023-03-06T05:54:51.908Z,99.52
2023-03-06T05:59:56.544Z,99.25
2023-03-06T06:04:59.912Z,98.44
2023-03-06T06:10:03.987Z,97.39
2023-03-06T06:15:10.053Z,96.12
2023-03-06T06:20:14.395Z,95.17
2023-03-06T06:25:18.197Z,94.55
2023-03-06T06:30:23.548Z,93.58
2023-03-06T06:35:26.828Z,90.62
2023-03-06T06:40:30.573Z,90.71
2023-03-06T06:45:35.486Z,89.45
2023-03-06T06:50:40.107Z,88.93
2023-03-06T06:55:43.447Z,87.29
2023-03-06T07:00:48.266Z,86.85
2023-03-06T07:05:57.760Z,86.38
2023-03-06T07:11:05.768Z,82.28
2023-03-06T07:16:11.057Z,82.54
2023-03-06T07:21:14.414Z,81.83
2023-03-06T07:26:17.668Z,79.36
2023-03-06T07:31:24.738Z,77.10
2023-03-06T07:36:28.162Z,75.28
2023-03-06T07:41:31.439Z,76.45
2023-03-06T07:46:36.059Z,75.65
2023-03-06T07:51:39.394Z,75.35
2023-03-06T07:56:42.658Z,74.72
2023-03-06T08:01:47.302Z,74.00
2023-03-06T08:06:50.809Z,73.74
2023-03-06T08:11:54.111Z,72.16
2023-03-06T08:16:59.038Z,70.36
2023-03-06T08:22:02.193Z,70.44
2023-03-06T08:27:05.481Z,70.94
2023-03-06T08:32:13.203Z,68.68
2023-03-06T08:37:16.463Z,68.10
2023-03-06T08:42:20.215Z,66.58
2023-03-06T08:47:24.966Z,65.61
2023-03-06T08:52:28.498Z,64.88
2023-03-06T08:57:32.023Z,66.43
2023-03-06T09:02:36.922Z,66.21
2023-03-06T09:07:40.213Z,63.90
2023-03-06T09:12:50.593Z,65.59
2023-03-06T09:17:56.973Z,65.73
2023-03-06T09:23:00.616Z,63.59
2023-03-06T09:28:11.322Z,64.26
2023-03-06T09:33:16.789Z,64.44
2023-03-06T09:38:20.778Z,63.67
2023-03-06T09:43:35.494Z,63.63
2023-03-06T09:48:50.464Z,61.78
2023-03-06T09:54:06.920Z,60.22
2023-03-06T09:59:17.579Z,60.27
2023-03-06T10:04:33.914Z,60.36
2023-03-06T10:09:43.504Z,59.91
2023-03-06T10:14:51.555Z,61.66
2023-03-06T10:19:56.621Z,62.93
2023-03-06T10:25:06.157Z,63.50
2023-03-06T10:30:33.840Z,62.03
2023-03-06T10:35:48.515Z,60.93
2023-03-06T10:41:08.177Z,60.31
2023-03-06T10:46:13.458Z,61.20
2023-03-06T10:51:21.221Z,61.04
2023-03-06T10:56:32.462Z,60.63
2023-03-06T11:01:36.202Z,59.97
2023-03-06T11:06:41.029Z,60.45
2023-03-06T11:11:44.553Z,61.19
2023-03-06T11:16:53.285Z,60.70
2023-03-06T11:22:03.868Z,59.79
2023-03-06T11:27:22.336Z,60.37
2023-03-06T11:32:28.979Z,60.17
2023-03-06T11:37:46.402Z,60.49
2023-03-06T11:42:54.448Z,59.60
2023-03-06T11:48:05.121Z,58.52
2023-03-06T11:53:13.927Z,55.92
2023-03-06T11:58:51.624Z,50.43
2023-03-06T12:04:27.250Z,47.64
2023-03-06T12:09:45.317Z,50.90
2023-03-06T12:15:17.822Z,53.54
2023-03-06T12:20:41.369Z,56.84
2023-03-06T12:25:51.845Z,58.66
2023-03-06T12:31:18.921Z,62.47
2023-03-06T12:36:40.004Z,69.06
2023-03-06T12:42:22.692Z,69.22
2023-03-06T12:47:29.305Z,60.42
2023-03-06T12:52:35.076Z,53.71
2023-03-06T12:57:39.649Z,55.57
2023-03-06T13:02:56.162Z,59.73
2023-03-06T13:08:25.386Z,63.51
2023-03-06T13:13:42.719Z,62.56
2023-03-06T13:18:53.264Z,55.38
2023-03-06T13:24:05.850Z,54.94
2023-03-06T13:29:41.878Z,55.71
2023-03-06T13:34:48.679Z,57.35
2023-03-06T13:40:26.935Z,59.12
2023-03-06T13:45:35.450Z,60.42
2023-03-06T13:50:42.865Z,61.79
2023-03-06T13:55:59.892Z,62.57
2023-03-06T14:01:20.326Z,63.75
2023-03-06T14:06:51.500Z,63.84
2023-03-06T14:11:59.334Z,63.96
2023-03-06T14:17:05.368Z,65.86
2023-03-06T14:22:18.386Z,74.60
2023-03-06T14:27:22.461Z,85.30
2023-03-06T14:32:25.978Z,86.08
2023-03-06T14:37:32.230Z,84.27
2023-03-06T14:42:35.530Z,82.82
2023-03-06T14:47:39.272Z,81.95
2023-03-06T14:52:44.534Z,80.64
2023-03-06T14:57:50.262Z,80.64
2023-03-06T15:02:56.419Z,83.35
2023-03-06T15:08:04.672Z,86.03
2023-03-06T15:13:12.625Z,87.14
2023-03-06T15:18:34.035Z,86.69
2023-03-06T15:23:40.580Z,87.05
2023-03-06T15:28:44.069Z,87.50
2023-03-06T15:34:09.300Z,87.08
2023-03-06T15:39:32.046Z,87.99
2023-03-06T15:44:35.838Z,88.70
2023-03-06T15:49:39.340Z,88.42
2023-03-06T15:54:44.346Z,89.55
2023-03-06T15:59:48.157Z,89.80
2023-03-06T16:04:52.273Z,90.11
2023-03-06T16:09:57.267Z,90.72
2023-03-06T16:15:03.004Z,90.85
2023-03-06T16:20:09.166Z,90.48
2023-03-06T16:25:15.267Z,90.36
2023-03-06T16:30:21.497Z,90.33
2023-03-06T16:35:25.859Z,90.10
2023-03-06T16:40:37.634Z,90.10
2023-03-06T16:45:42.757Z,91.13
2023-03-06T16:50:46.325Z,91.56
2023-03-06T16:55:51.113Z,91.42
2023-03-06T17:00:54.700Z,91.92
2023-03-06T17:05:58.015Z,92.00
2023-03-06T17:11:06.410Z,92.58
2023-03-06T17:16:12.775Z,93.09
2023-03-06T17:21:16.711Z,94.03
2023-03-06T17:26:21.554Z,94.35
2023-03-06T17:31:27.153Z,94.13
2023-03-06T17:36:31.251Z,94.15
2023-03-06T17:41:35.985Z,94.53
2023-03-06T17:46:39.499Z,95.09
2023-03-06T17:51:42.697Z,95.23
2023-03-06T17:56:47.620Z,95.13
2023-03-06T18:01:51.050Z,95.19
2023-03-06T18:06:54.517Z,95.72
2023-03-06T18:11:59.156Z,95.83
2023-03-06T18:17:02.465Z,96.37
2023-03-06T18:22:05.651Z,97.01
2023-03-06T18:27:10.516Z,96.99
2023-03-06T18:32:13.746Z,97.31
2023-03-06T18:37:17.282Z,97.80
2023-03-06T18:42:22.066Z,97.94
2023-03-06T18:47:25.388Z,97.96
2023-03-06T18:52:28.577Z,98.25
2023-03-06T18:57:33.638Z,98.41
2023-03-06T19:02:36.961Z,98.97
2023-03-06T19:07:40.830Z,98.71
2023-03-06T19:12:45.622Z,98.76
2023-03-06T19:17:51.516Z,99.06
2023-03-06T19:22:55.242Z,98.77
2023-03-06T19:27:59.938Z,98.93
2023-03-06T19:33:03.287Z,98.68
2023-03-06T19:38:06.465Z,99.00
2023-03-06T19:43:11.170Z,98.68
2023-03-06T19:48:14.860Z,98.33
2023-03-06T19:53:18.096Z,98.47
2023-03-06T19:58:22.754Z,98.78
2023-03-06T20:03:25.995Z,98.26
2023-03-06T20:08:29.283Z,97.78
2023-03-06T20:13:34.114Z,97.13
2023-03-06T20:18:37.523Z,96.98
2023-03-06T20:23:40.997Z,96.44
2023-03-06T20:28:45.653Z,96.09
2023-03-06T20:33:51.240Z,95.96
2023-03-06T20:38:54.597Z,95.80
2023-03-06T20:44:01.187Z,94.82
2023-03-06T20:49:05.448Z,94.31
2023-03-06T20:54:11.172Z,93.82
2023-03-06T20:59:16.353Z,93.32
2023-03-06T21:04:19.486Z,92.89
2023-03-06T21:09:22.936Z,92.54
2023-03-06T21:14:27.885Z,92.56
2023-03-06T21:19:31.265Z,92.26
2023-03-06T21:24:34.530Z,91.92
2023-03-06T21:29:39.213Z,91.58
2023-03-06T21:34:42.600Z,91.08
2023-03-06T21:39:45.902Z,90.94
2023-03-06T21:44:50.889Z,90.58
2023-03-06T21:49:54.186Z,89.82
2023-03-06T21:54:57.503Z,89.54
2023-03-06T22:00:02.365Z,89.19
2023-03-06T22:05:07.194Z,88.69
2023-03-06T22:10:14.391Z,88.68
2023-03-06T22:15:21.914Z,88.26
2023-03-06T22:20:25.256Z,88.22
2023-03-06T22:25:28.405Z,87.84
2023-03-06T22:30:33.100Z,87.05
2023-03-06T22:35:36.401Z,87.08
2023-03-06T22:40:39.803Z,87.28
2023-03-06T22:45:44.726Z,86.79
2023-03-06T22:50:48.464Z,85.89
2023-03-06T22:55:51.941Z,85.60
2023-03-06T23:00:57.901Z,84.72
2023-03-06T23:06:01.199Z,84.81
2023-03-06T23:11:08.230Z,84.98
2023-03-06T23:16:13.326Z,84.15
2023-03-06T23:21:18.426Z,84.36
2023-03-06T23:26:23.925Z,83.95
2023-03-06T23:31:30.244Z,83.94
2023-03-06T23:36:33.577Z,83.51
2023-03-06T23:41:36.872Z,83.45
2023-03-06T23:46:41.588Z,83.40
2023-03-06T23:51:45.063Z,83.53
2023-03-06T23:56:48.660Z,83.57
